sensor_id;sensor_type;location;lat;lon;timestamp;temperature;humidity
11538;DHT22;50159;49.426;11.182;2024-01-07T00:02:20;3.60;99.90
11538;DHT22;50159;49.426;11.182;2024-01-07T00:04:47;3.60;99.90
11538;DHT22;50159;49.426;11.182;2024-01-07T00:07:14;3.60;99.90
11538;DHT22;50159;49.426;11.182;2024-01-07T00:09:41;3.60;99.90
11538;DHT22;50159;49.426;11.182;2024-01-07T00:12:08;3.60;99.90
11538;DHT22;50159;49.426;11.182;2024-01-07T00:14:34;3.60;99.90
11538;DHT22;50159;49.426;11.182;2024-01-07T00:17:01;3.50;99.90
11538;DHT22;50159;49.426;11.182;2024-01-07T00:19:28;3.50;99.90
11538;DHT22;50159;49.426;11.182;2024-01-07T00:21:58;3.50;99.90
11538;DHT22;50159;49.426;11.182;2024-01-07T00:24:24;3.50;99.90
11538;DHT22;50159;49.426;11.182;2024-01-07T00:26:55;3.50;99.90
11538;DHT22;50159;49.426;11.182;2024-01-07T00:29:22;3.50;99.90
11538;DHT22;50159;49.426;11.182;2024-01-07T00:31:48;3.50;99.90
11538;DHT22;50159;49.426;11.182;2024-01-07T00:34:15;3.50;99.90
11538;DHT22;50159;49.426;11.182;2024-01-07T00:36:42;3.50;99.90
11538;DHT22;50159;49.426;11.182;2024-01-07T00:39:09;3.50;99.90
11538;DHT22;50159;49.426;11.182;2024-01-07T00:41:36;3.50;99.90
11538;DHT22;50159;49.426;11.182;2024-01-07T00:44:03;3.50;99.90
11538;DHT22;50159;49.426;11.182;2024-01-07T00:46:30;3.50;99.90
11538;DHT22;50159;49.426;11.182;2024-01-07T00:48:56;3.50;99.90
11538;DHT22;50159;49.426;11.182;2024-01-07T00:51:23;3.40;99.90
11538;DHT22;50159;49.426;11.182;2024-01-07T00:53:50;3.40;99.90
11538;DHT22;50159;49.426;11.182;2024-01-07T00:56:17;3.40;99.90
11538;DHT22;50159;49.426;11.182;2024-01-07T00:58:43;3.40;99.90
11538;DHT22;50159;49.426;11.182;2024-01-07T01:01:10;3.40;99.90
11538;DHT22;50159;49.426;11.182;2024-01-07T01:03:37;3.40;99.90
11538;DHT22;50159;49.426;11.182;2024-01-07T01:06:04;3.40;99.90
11538;DHT22;50159;49.426;11.182;2024-01-07T01:08:31;3.30;99.90
11538;DHT22;50159;49.426;11.182;2024-01-07T01:10:57;3.30;99.90
11538;DHT22;50159;49.426;11.182;2024-01-07T01:13:24;3.30;99.90
11538;DHT22;50159;49.426;11.182;2024-01-07T01:15:51;3.30;99.90
11538;DHT22;50159;49.426;11.182;2024-01-07T01:18:18;3.30;99.90
11538;DHT22;50159;49.426;11.182;2024-01-07T01:20:45;3.30;99.90
11538;DHT22;50159;49.426;11.182;2024-01-07T01:23:12;3.30;99.90
11538;DHT22;50159;49.426;11.182;2024-01-07T01:25:39;3.30;99.90
11538;DHT22;50159;49.426;11.182;2024-01-07T01:28:06;3.30;99.90
11538;DHT22;50159;49.426;11.182;2024-01-07T01:30:33;3.30;99.90
11538;DHT22;50159;49.426;11.182;2024-01-07T01:33:00;3.30;99.90
11538;DHT22;50159;49.426;11.182;2024-01-07T01:35:28;3.30;99.90
11538;DHT22;50159;49.426;11.182;2024-01-07T01:37:55;3.30;99.90
11538;DHT22;50159;49.426;11.182;2024-01-07T01:40:21;3.40;99.90
11538;DHT22;50159;49.426;11.182;2024-01-07T01:42:48;3.40;99.90
11538;DHT22;50159;49.426;11.182;2024-01-07T01:45:15;3.30;99.90
11538;DHT22;50159;49.426;11.182;2024-01-07T01:47:42;3.40;99.90
11538;DHT22;50159;49.426;11.182;2024-01-07T01:50:09;3.30;99.90
11538;DHT22;50159;49.426;11.182;2024-01-07T01:52:37;3.30;99.90
11538;DHT22;50159;49.426;11.182;2024-01-07T01:55:04;3.30;99.90
11538;DHT22;50159;49.426;11.182;2024-01-07T01:57:34;3.30;99.90
11538;DHT22;50159;49.426;11.182;2024-01-07T02:00:03;3.30;99.90
11538;DHT22;50159;49.426;11.182;2024-01-07T02:02:32;3.30;99.90
11538;DHT22;50159;49.426;11.182;2024-01-07T02:05:01;3.30;99.90
11538;DHT22;50159;49.426;11.182;2024-01-07T02:07:30;3.30;99.90
11538;DHT22;50159;49.426;11.182;2024-01-07T02:09:57;3.30;99.90
11538;DHT22;50159;49.426;11.182;2024-01-07T02:12:24;3.20;99.90
11538;DHT22;50159;49.426;11.182;2024-01-07T02:14:51;3.20;99.90
11538;DHT22;50159;49.426;11.182;2024-01-07T02:17:18;3.20;99.90
11538;DHT22;50159;49.426;11.182;2024-01-07T02:19:46;3.20;99.90
11538;DHT22;50159;49.426;11.182;2024-01-07T02:22:13;3.20;99.90
11538;DHT22;50159;49.426;11.182;2024-01-07T02:24:40;3.20;99.90
11538;DHT22;50159;49.426;11.182;2024-01-07T02:27:06;3.20;99.90
11538;DHT22;50159;49.426;11.182;2024-01-07T02:29:33;3.20;99.90
11538;DHT22;50159;49.426;11.182;2024-01-07T02:32:00;3.20;99.90
11538;DHT22;50159;49.426;11.182;2024-01-07T02:34:26;3.20;99.90
11538;DHT22;50159;49.426;11.182;2024-01-07T02:36:53;3.20;99.90
11538;DHT22;50159;49.426;11.182;2024-01-07T02:39:20;3.30;99.90
11538;DHT22;50159;49.426;11.182;2024-01-07T02:41:47;3.30;99.90
11538;DHT22;50159;49.426;11.182;2024-01-07T02:44:14;3.30;99.90
11538;DHT22;50159;49.426;11.182;2024-01-07T02:46:40;3.30;99.90
11538;DHT22;50159;49.426;11.182;2024-01-07T02:49:07;3.30;99.90
11538;DHT22;50159;49.426;11.182;2024-01-07T02:51:34;3.30;99.90
11538;DHT22;50159;49.426;11.182;2024-01-07T02:54:01;3.30;99.90
11538;DHT22;50159;49.426;11.182;2024-01-07T02:56:28;3.30;99.90
11538;DHT22;50159;49.426;11.182;2024-01-07T02:58:55;3.30;99.90
11538;DHT22;50159;49.426;11.182;2024-01-07T03:01:22;3.20;99.90
11538;DHT22;50159;49.426;11.182;2024-01-07T03:03:50;3.20;99.90
11538;DHT22;50159;49.426;11.182;2024-01-07T03:06:17;3.20;99.90
11538;DHT22;50159;49.426;11.182;2024-01-07T03:08:44;3.20;99.90
11538;DHT22;50159;49.426;11.182;2024-01-07T03:11:10;3.20;99.90
11538;DHT22;50159;49.426;11.182;2024-01-07T03:13:37;3.20;99.90
11538;DHT22;50159;49.426;11.182;2024-01-07T03:16:04;3.10;99.90
11538;DHT22;50159;49.426;11.182;2024-01-07T03:18:31;3.10;99.90
11538;DHT22;50159;49.426;11.182;2024-01-07T03:20:58;3.10;99.90
11538;DHT22;50159;49.426;11.182;2024-01-07T03:23:25;3.10;99.90
11538;DHT22;50159;49.426;11.182;2024-01-07T03:25:52;3.10;99.90
11538;DHT22;50159;49.426;11.182;2024-01-07T03:28:19;3.10;99.90
11538;DHT22;50159;49.426;11.182;2024-01-07T03:30:45;3.10;99.90
11538;DHT22;50159;49.426;11.182;2024-01-07T03:33:12;3.10;99.90
11538;DHT22;50159;49.426;11.182;2024-01-07T03:35:42;3.10;99.90
11538;DHT22;50159;49.426;11.182;2024-01-07T03:38:09;3.10;99.90
11538;DHT22;50159;49.426;11.182;2024-01-07T03:40:35;3.10;99.90
11538;DHT22;50159;49.426;11.182;2024-01-07T03:43:02;3.00;99.90
11538;DHT22;50159;49.426;11.182;2024-01-07T03:45:29;3.00;99.90
11538;DHT22;50159;49.426;11.182;2024-01-07T03:47:57;3.00;99.90
11538;DHT22;50159;49.426;11.182;2024-01-07T03:50:24;3.00;99.90
11538;DHT22;50159;49.426;11.182;2024-01-07T03:52:51;3.00;99.90
11538;DHT22;50159;49.426;11.182;2024-01-07T03:55:18;3.00;99.90
11538;DHT22;50159;49.426;11.182;2024-01-07T03:57:45;3.00;99.90
11538;DHT22;50159;49.426;11.182;2024-01-07T04:00:11;3.00;99.90
11538;DHT22;50159;49.426;11.182;2024-01-07T04:02:38;3.00;99.90
11538;DHT22;50159;49.426;11.182;2024-01-07T04:05:05;3.00;99.90
11538;DHT22;50159;49.426;11.182;2024-01-07T04:07:34;3.00;99.90
11538;DHT22;50159;49.426;11.182;2024-01-07T04:10:00;3.00;99.90
11538;DHT22;50159;49.426;11.182;2024-01-07T04:12:27;3.10;99.90
11538;DHT22;50159;49.426;11.182;2024-01-07T04:14:54;3.10;99.90
11538;DHT22;50159;49.426;11.182;2024-01-07T04:17:21;3.10;99.90
11538;DHT22;50159;49.426;11.182;2024-01-07T04:19:47;3.10;99.90
11538;DHT22;50159;49.426;11.182;2024-01-07T04:22:14;3.10;99.90
11538;DHT22;50159;49.426;11.182;2024-01-07T04:24:41;3.00;99.90
11538;DHT22;50159;49.426;11.182;2024-01-07T04:27:08;3.00;99.90
11538;DHT22;50159;49.426;11.182;2024-01-07T04:29:35;3.00;99.90
11538;DHT22;50159;49.426;11.182;2024-01-07T04:32:02;3.00;99.90
11538;DHT22;50159;49.426;11.182;2024-01-07T04:34:29;3.00;99.90
11538;DHT22;50159;49.426;11.182;2024-01-07T04:36:56;3.00;99.90
11538;DHT22;50159;49.426;11.182;2024-01-07T04:39:23;2.90;99.90
11538;DHT22;50159;49.426;11.182;2024-01-07T04:41:49;2.90;99.90
11538;DHT22;50159;49.426;11.182;2024-01-07T04:44:16;2.90;99.90
11538;DHT22;50159;49.426;11.182;2024-01-07T04:46:43;2.90;99.90
11538;DHT22;50159;49.426;11.182;2024-01-07T04:49:10;2.90;99.90
11538;DHT22;50159;49.426;11.182;2024-01-07T04:51:37;2.90;99.90
11538;DHT22;50159;49.426;11.182;2024-01-07T04:54:04;2.90;99.90
11538;DHT22;50159;49.426;11.182;2024-01-07T04:56:32;2.90;99.90
11538;DHT22;50159;49.426;11.182;2024-01-07T04:58:59;2.90;99.90
11538;DHT22;50159;49.426;11.182;2024-01-07T05:01:26;2.80;99.90
11538;DHT22;50159;49.426;11.182;2024-01-07T05:03:53;2.80;99.90
11538;DHT22;50159;49.426;11.182;2024-01-07T05:06:20;2.80;99.90
11538;DHT22;50159;49.426;11.182;2024-01-07T05:08:46;2.80;99.90
11538;DHT22;50159;49.426;11.182;2024-01-07T05:11:13;2.80;99.90
11538;DHT22;50159;49.426;11.182;2024-01-07T05:13:40;2.70;99.90
11538;DHT22;50159;49.426;11.182;2024-01-07T05:16:07;2.70;99.90
11538;DHT22;50159;49.426;11.182;2024-01-07T05:18:33;2.70;99.90
11538;DHT22;50159;49.426;11.182;2024-01-07T05:21:00;2.70;99.90
11538;DHT22;50159;49.426;11.182;2024-01-07T05:23:27;2.70;99.90
11538;DHT22;50159;49.426;11.182;2024-01-07T05:25:54;2.70;99.90
11538;DHT22;50159;49.426;11.182;2024-01-07T05:28:20;2.70;99.90
11538;DHT22;50159;49.426;11.182;2024-01-07T05:30:48;2.70;99.90
11538;DHT22;50159;49.426;11.182;2024-01-07T05:33:15;2.70;99.90
11538;DHT22;50159;49.426;11.182;2024-01-07T05:35:42;2.60;99.90
11538;DHT22;50159;49.426;11.182;2024-01-07T05:38:09;2.60;99.90
11538;DHT22;50159;49.426;11.182;2024-01-07T05:40:36;2.60;99.90
11538;DHT22;50159;49.426;11.182;2024-01-07T05:43:03;2.60;99.90
11538;DHT22;50159;49.426;11.182;2024-01-07T05:45:30;2.60;99.90
11538;DHT22;50159;49.426;11.182;2024-01-07T05:47:56;2.60;99.90
11538;DHT22;50159;49.426;11.182;2024-01-07T05:50:23;2.60;99.90
11538;DHT22;50159;49.426;11.182;2024-01-07T05:52:50;2.50;99.90
11538;DHT22;50159;49.426;11.182;2024-01-07T05:55:16;2.50;99.90
11538;DHT22;50159;49.426;11.182;2024-01-07T05:57:43;2.50;99.90
11538;DHT22;50159;49.426;11.182;2024-01-07T06:00:10;2.50;99.90
11538;DHT22;50159;49.426;11.182;2024-01-07T06:02:38;2.50;99.90
11538;DHT22;50159;49.426;11.182;2024-01-07T06:05:06;2.40;99.90
11538;DHT22;50159;49.426;11.182;2024-01-07T06:07:33;2.40;99.90
11538;DHT22;50159;49.426;11.182;2024-01-07T06:10:00;2.40;99.90
11538;DHT22;50159;49.426;11.182;2024-01-07T06:12:27;2.40;99.90
11538;DHT22;50159;49.426;11.182;2024-01-07T06:14:53;2.40;99.90
11538;DHT22;50159;49.426;11.182;2024-01-07T06:17:20;2.30;99.90
11538;DHT22;50159;49.426;11.182;2024-01-07T06:19:47;2.30;99.90
11538;DHT22;50159;49.426;11.182;2024-01-07T06:22:14;2.30;99.90
11538;DHT22;50159;49.426;11.182;2024-01-07T06:24:41;2.30;99.90
11538;DHT22;50159;49.426;11.182;2024-01-07T06:27:08;2.30;99.90
11538;DHT22;50159;49.426;11.182;2024-01-07T06:29:35;2.30;99.90
11538;DHT22;50159;49.426;11.182;2024-01-07T06:32:01;2.30;99.90
11538;DHT22;50159;49.426;11.182;2024-01-07T06:34:29;2.30;99.90
11538;DHT22;50159;49.426;11.182;2024-01-07T06:36:57;2.30;99.90
11538;DHT22;50159;49.426;11.182;2024-01-07T06:39:24;2.30;99.90
11538;DHT22;50159;49.426;11.182;2024-01-07T06:41:53;2.30;99.90
11538;DHT22;50159;49.426;11.182;2024-01-07T06:44:20;2.30;99.90
11538;DHT22;50159;49.426;11.182;2024-01-07T06:46:47;2.30;99.90
11538;DHT22;50159;49.426;11.182;2024-01-07T06:49:13;2.30;99.90
11538;DHT22;50159;49.426;11.182;2024-01-07T06:51:40;2.30;99.90
11538;DHT22;50159;49.426;11.182;2024-01-07T06:54:07;2.30;99.90
11538;DHT22;50159;49.426;11.182;2024-01-07T06:56:37;2.30;99.90
11538;DHT22;50159;49.426;11.182;2024-01-07T06:59:04;2.30;99.90
11538;DHT22;50159;49.426;11.182;2024-01-07T07:01:31;2.20;99.90
11538;DHT22;50159;49.426;11.182;2024-01-07T07:03:58;2.20;99.90
11538;DHT22;50159;49.426;11.182;2024-01-07T07:06:25;2.20;99.90
11538;DHT22;50159;49.426;11.182;2024-01-07T07:08:52;2.20;99.90
11538;DHT22;50159;49.426;11.182;2024-01-07T07:11:18;2.20;99.90
11538;DHT22;50159;49.426;11.182;2024-01-07T07:13:46;2.20;99.90
11538;DHT22;50159;49.426;11.182;2024-01-07T07:16:12;2.20;99.90
11538;DHT22;50159;49.426;11.182;2024-01-07T07:18:39;2.20;99.90
11538;DHT22;50159;49.426;11.182;2024-01-07T07:21:06;2.10;99.90
11538;DHT22;50159;49.426;11.182;2024-01-07T07:23:33;2.10;99.90
11538;DHT22;50159;49.426;11.182;2024-01-07T07:25:59;2.10;99.90
11538;DHT22;50159;49.426;11.182;2024-01-07T07:28:26;2.10;99.90
11538;DHT22;50159;49.426;11.182;2024-01-07T07:30:53;2.10;99.90
11538;DHT22;50159;49.426;11.182;2024-01-07T07:33:20;2.10;99.90
11538;DHT22;50159;49.426;11.182;2024-01-07T07:35:47;2.10;99.90
11538;DHT22;50159;49.426;11.182;2024-01-07T07:38:13;2.10;99.90
11538;DHT22;50159;49.426;11.182;2024-01-07T07:40:41;2.10;99.90
11538;DHT22;50159;49.426;11.182;2024-01-07T07:43:08;2.00;99.90
11538;DHT22;50159;49.426;11.182;2024-01-07T07:45:35;2.00;99.90
11538;DHT22;50159;49.426;11.182;2024-01-07T07:48:02;2.00;99.90
11538;DHT22;50159;49.426;11.182;2024-01-07T07:50:29;1.90;99.90
11538;DHT22;50159;49.426;11.182;2024-01-07T07:52:56;1.90;99.90
11538;DHT22;50159;49.426;11.182;2024-01-07T07:55:23;1.90;99.90
11538;DHT22;50159;49.426;11.182;2024-01-07T07:57:50;1.90;99.90
11538;DHT22;50159;49.426;11.182;2024-01-07T08:00:18;2.00;99.90
11538;DHT22;50159;49.426;11.182;2024-01-07T08:02:45;1.90;99.90
11538;DHT22;50159;49.426;11.182;2024-01-07T08:05:12;2.00;99.90
11538;DHT22;50159;49.426;11.182;2024-01-07T08:07:40;2.00;99.90
11538;DHT22;50159;49.426;11.182;2024-01-07T08:10:07;2.00;99.90
11538;DHT22;50159;49.426;11.182;2024-01-07T08:12:34;1.90;99.90
11538;DHT22;50159;49.426;11.182;2024-01-07T08:15:01;1.90;99.90
11538;DHT22;50159;49.426;11.182;2024-01-07T08:17:29;1.90;99.90
11538;DHT22;50159;49.426;11.182;2024-01-07T08:19:56;1.90;99.90
11538;DHT22;50159;49.426;11.182;2024-01-07T08:22:22;1.80;99.90
11538;DHT22;50159;49.426;11.182;2024-01-07T08:24:50;1.80;99.90
11538;DHT22;50159;49.426;11.182;2024-01-07T08:27:17;1.80;99.90
11538;DHT22;50159;49.426;11.182;2024-01-07T08:29:44;1.80;99.90
11538;DHT22;50159;49.426;11.182;2024-01-07T08:32:10;1.80;99.90
11538;DHT22;50159;49.426;11.182;2024-01-07T08:34:39;1.80;99.90
11538;DHT22;50159;49.426;11.182;2024-01-07T08:37:09;1.80;99.90
11538;DHT22;50159;49.426;11.182;2024-01-07T08:39:36;1.80;99.90
11538;DHT22;50159;49.426;11.182;2024-01-07T08:42:03;1.80;99.90
11538;DHT22;50159;49.426;11.182;2024-01-07T08:44:30;1.80;99.90
11538;DHT22;50159;49.426;11.182;2024-01-07T08:46:58;1.70;99.90
11538;DHT22;50159;49.426;11.182;2024-01-07T08:49:30;2.00;99.90
11538;DHT22;50159;49.426;11.182;2024-01-07T08:51:59;1.70;99.90
11538;DHT22;50159;49.426;11.182;2024-01-07T08:54:26;1.40;99.90
11538;DHT22;50159;49.426;11.182;2024-01-07T08:56:53;1.60;99.90
11538;DHT22;50159;49.426;11.182;2024-01-07T08:59:20;1.60;99.90
11538;DHT22;50159;49.426;11.182;2024-01-07T09:01:46;1.50;99.90
11538;DHT22;50159;49.426;11.182;2024-01-07T09:04:13;1.50;99.90
11538;DHT22;50159;49.426;11.182;2024-01-07T09:06:40;1.50;99.90
11538;DHT22;50159;49.426;11.182;2024-01-07T09:09:07;1.40;99.90
11538;DHT22;50159;49.426;11.182;2024-01-07T09:11:35;1.10;99.90
11538;DHT22;50159;49.426;11.182;2024-01-07T09:14:03;1.50;99.90
11538;DHT22;50159;49.426;11.182;2024-01-07T09:16:29;1.50;99.90
11538;DHT22;50159;49.426;11.182;2024-01-07T09:18:56;1.40;99.90
11538;DHT22;50159;49.426;11.182;2024-01-07T09:21:23;1.00;99.90
11538;DHT22;50159;49.426;11.182;2024-01-07T09:23:50;1.40;99.90
11538;DHT22;50159;49.426;11.182;2024-01-07T09:26:17;1.30;99.90
11538;DHT22;50159;49.426;11.182;2024-01-07T09:28:44;1.20;99.90
11538;DHT22;50159;49.426;11.182;2024-01-07T09:31:10;1.30;99.90
11538;DHT22;50159;49.426;11.182;2024-01-07T09:33:37;1.30;99.90
11538;DHT22;50159;49.426;11.182;2024-01-07T09:36:04;1.30;99.90
11538;DHT22;50159;49.426;11.182;2024-01-07T09:38:51;1.30;99.90
11538;DHT22;50159;49.426;11.182;2024-01-07T09:41:20;1.30;99.90
11538;DHT22;50159;49.426;11.182;2024-01-07T09:43:46;1.30;99.90
11538;DHT22;50159;49.426;11.182;2024-01-07T09:46:13;1.30;99.90
11538;DHT22;50159;49.426;11.182;2024-01-07T09:48:40;1.20;99.90
11538;DHT22;50159;49.426;11.182;2024-01-07T09:51:07;1.20;99.90
11538;DHT22;50159;49.426;11.182;2024-01-07T09:53:38;1.20;99.90
11538;DHT22;50159;49.426;11.182;2024-01-07T09:56:13;1.20;99.90
11538;DHT22;50159;49.426;11.182;2024-01-07T09:58:48;1.20;99.90
11538;DHT22;50159;49.426;11.182;2024-01-07T10:01:19;1.20;99.90
11538;DHT22;50159;49.426;11.182;2024-01-07T10:03:46;1.20;99.90
11538;DHT22;50159;49.426;11.182;2024-01-07T10:06:13;1.20;99.90
11538;DHT22;50159;49.426;11.182;2024-01-07T10:08:40;1.20;99.90
11538;DHT22;50159;49.426;11.182;2024-01-07T10:11:07;1.20;99.90
11538;DHT22;50159;49.426;11.182;2024-01-07T10:13:35;1.20;99.90
11538;DHT22;50159;49.426;11.182;2024-01-07T10:16:02;1.20;99.90
11538;DHT22;50159;49.426;11.182;2024-01-07T10:18:30;1.10;99.90
11538;DHT22;50159;49.426;11.182;2024-01-07T10:21:03;1.10;99.90
11538;DHT22;50159;49.426;11.182;2024-01-07T10:23:33;1.00;99.90
11538;DHT22;50159;49.426;11.182;2024-01-07T10:26:00;1.00;99.90
11538;DHT22;50159;49.426;11.182;2024-01-07T10:28:37;1.00;99.90
11538;DHT22;50159;49.426;11.182;2024-01-07T10:31:04;1.00;99.90
11538;DHT22;50159;49.426;11.182;2024-01-07T10:33:32;1.00;99.90
11538;DHT22;50159;49.426;11.182;2024-01-07T10:36:02;1.00;99.90
11538;DHT22;50159;49.426;11.182;2024-01-07T10:38:32;1.00;99.90
11538;DHT22;50159;49.426;11.182;2024-01-07T10:41:02;1.00;99.90
11538;DHT22;50159;49.426;11.182;2024-01-07T10:43:33;1.00;99.90
11538;DHT22;50159;49.426;11.182;2024-01-07T10:46:02;1.10;99.90
11538;DHT22;50159;49.426;11.182;2024-01-07T10:48:31;1.10;99.90
11538;DHT22;50159;49.426;11.182;2024-01-07T10:51:04;1.10;99.90
11538;DHT22;50159;49.426;11.182;2024-01-07T10:53:33;1.10;99.90
11538;DHT22;50159;49.426;11.182;2024-01-07T10:56:04;1.10;99.90
11538;DHT22;50159;49.426;11.182;2024-01-07T10:58:35;1.10;99.90
11538;DHT22;50159;49.426;11.182;2024-01-07T11:01:03;1.10;99.90
11538;DHT22;50159;49.426;11.182;2024-01-07T11:03:39;1.10;99.90
11538;DHT22;50159;49.426;11.182;2024-01-07T11:08:52;1.20;99.90
11538;DHT22;50159;49.426;11.182;2024-01-07T11:11:27;1.20;99.90
11538;DHT22;50159;49.426;11.182;2024-01-07T11:14:02;1.20;99.90
11538;DHT22;50159;49.426;11.182;2024-01-07T11:16:41;1.20;99.90
11538;DHT22;50159;49.426;11.182;2024-01-07T11:19:08;1.20;99.90
11538;DHT22;50159;49.426;11.182;2024-01-07T11:21:35;1.30;99.90
11538;DHT22;50159;49.426;11.182;2024-01-07T11:24:03;1.20;99.90
11538;DHT22;50159;49.426;11.182;2024-01-07T11:26:30;1.20;99.90
11538;DHT22;50159;49.426;11.182;2024-01-07T11:28:57;1.20;99.90
11538;DHT22;50159;49.426;11.182;2024-01-07T11:31:43;1.20;99.90
11538;DHT22;50159;49.426;11.182;2024-01-07T11:34:10;1.20;99.90
11538;DHT22;50159;49.426;11.182;2024-01-07T11:36:57;1.20;99.90
11538;DHT22;50159;49.426;11.182;2024-01-07T11:39:24;1.20;99.90
11538;DHT22;50159;49.426;11.182;2024-01-07T11:41:51;1.20;99.90
11538;DHT22;50159;49.426;11.182;2024-01-07T11:44:18;1.20;99.90
11538;DHT22;50159;49.426;11.182;2024-01-07T11:46:44;1.20;99.90
11538;DHT22;50159;49.426;11.182;2024-01-07T11:49:13;1.20;99.90
11538;DHT22;50159;49.426;11.182;2024-01-07T11:51:41;1.20;99.90
11538;DHT22;50159;49.426;11.182;2024-01-07T11:54:09;1.20;99.90
11538;DHT22;50159;49.426;11.182;2024-01-07T11:56:36;1.10;99.90
11538;DHT22;50159;49.426;11.182;2024-01-07T11:59:04;1.10;99.90
11538;DHT22;50159;49.426;11.182;2024-01-07T12:01:32;1.10;99.90
11538;DHT22;50159;49.426;11.182;2024-01-07T12:03:59;1.00;99.90
11538;DHT22;50159;49.426;11.182;2024-01-07T12:06:26;1.00;99.90
11538;DHT22;50159;49.426;11.182;2024-01-07T12:08:53;1.00;99.90
11538;DHT22;50159;49.426;11.182;2024-01-07T12:11:20;1.00;99.90
11538;DHT22;50159;49.426;11.182;2024-01-07T12:13:47;1.00;99.90
11538;DHT22;50159;49.426;11.182;2024-01-07T12:16:17;1.00;99.90
11538;DHT22;50159;49.426;11.182;2024-01-07T12:18:43;0.90;99.90
11538;DHT22;50159;49.426;11.182;2024-01-07T12:21:18;0.90;99.90
11538;DHT22;50159;49.426;11.182;2024-01-07T12:23:47;0.90;99.90
11538;DHT22;50159;49.426;11.182;2024-01-07T12:26:16;0.90;99.90
11538;DHT22;50159;49.426;11.182;2024-01-07T12:28:51;0.90;99.90
11538;DHT22;50159;49.426;11.182;2024-01-07T12:31:19;0.90;99.90
11538;DHT22;50159;49.426;11.182;2024-01-07T12:33:46;0.80;99.90
11538;DHT22;50159;49.426;11.182;2024-01-07T12:36:13;0.90;99.90
11538;DHT22;50159;49.426;11.182;2024-01-07T12:38:41;0.90;99.90
11538;DHT22;50159;49.426;11.182;2024-01-07T12:41:08;0.80;99.90
11538;DHT22;50159;49.426;11.182;2024-01-07T12:43:35;0.80;99.90
11538;DHT22;50159;49.426;11.182;2024-01-07T12:46:02;0.80;99.90
11538;DHT22;50159;49.426;11.182;2024-01-07T12:48:32;0.80;99.90
11538;DHT22;50159;49.426;11.182;2024-01-07T12:51:00;0.80;99.90
11538;DHT22;50159;49.426;11.182;2024-01-07T12:53:28;0.80;99.90
11538;DHT22;50159;49.426;11.182;2024-01-07T12:55:55;0.90;99.90
11538;DHT22;50159;49.426;11.182;2024-01-07T12:58:22;0.80;99.90
11538;DHT22;50159;49.426;11.182;2024-01-07T13:00:48;0.80;99.90
11538;DHT22;50159;49.426;11.182;2024-01-07T13:03:15;0.80;99.90
11538;DHT22;50159;49.426;11.182;2024-01-07T13:05:46;0.80;99.90
11538;DHT22;50159;49.426;11.182;2024-01-07T13:08:16;0.80;99.90
11538;DHT22;50159;49.426;11.182;2024-01-07T13:10:48;0.80;99.90
11538;DHT22;50159;49.426;11.182;2024-01-07T13:13:15;0.80;99.90
11538;DHT22;50159;49.426;11.182;2024-01-07T13:15:42;0.80;99.90
11538;DHT22;50159;49.426;11.182;2024-01-07T13:18:10;0.80;99.90
11538;DHT22;50159;49.426;11.182;2024-01-07T13:20:39;0.80;99.90
11538;DHT22;50159;49.426;11.182;2024-01-07T13:23:08;0.80;99.90
11538;DHT22;50159;49.426;11.182;2024-01-07T13:25:35;0.70;99.90
11538;DHT22;50159;49.426;11.182;2024-01-07T13:28:02;0.70;99.90
11538;DHT22;50159;49.426;11.182;2024-01-07T13:30:29;0.80;99.90
11538;DHT22;50159;49.426;11.182;2024-01-07T13:32:56;0.70;99.90
11538;DHT22;50159;49.426;11.182;2024-01-07T13:35:24;0.70;99.90
11538;DHT22;50159;49.426;11.182;2024-01-07T13:37:52;0.70;99.90
11538;DHT22;50159;49.426;11.182;2024-01-07T13:40:18;0.70;99.90
11538;DHT22;50159;49.426;11.182;2024-01-07T13:42:46;0.70;99.90
11538;DHT22;50159;49.426;11.182;2024-01-07T13:45:17;0.70;99.90
11538;DHT22;50159;49.426;11.182;2024-01-07T13:47:47;0.60;99.90
11538;DHT22;50159;49.426;11.182;2024-01-07T13:50:14;0.60;99.90
11538;DHT22;50159;49.426;11.182;2024-01-07T13:52:41;0.60;99.90
11538;DHT22;50159;49.426;11.182;2024-01-07T13:55:08;0.60;99.90
11538;DHT22;50159;49.426;11.182;2024-01-07T13:57:36;0.60;99.90
11538;DHT22;50159;49.426;11.182;2024-01-07T14:00:03;0.50;99.90
11538;DHT22;50159;49.426;11.182;2024-01-07T14:02:36;0.50;99.90
11538;DHT22;50159;49.426;11.182;2024-01-07T14:05:04;0.50;99.90
11538;DHT22;50159;49.426;11.182;2024-01-07T14:07:37;0.40;99.90
11538;DHT22;50159;49.426;11.182;2024-01-07T14:10:05;0.50;99.90
11538;DHT22;50159;49.426;11.182;2024-01-07T14:12:34;0.50;99.90
11538;DHT22;50159;49.426;11.182;2024-01-07T14:15:00;0.50;99.90
11538;DHT22;50159;49.426;11.182;2024-01-07T14:17:27;0.50;99.90
11538;DHT22;50159;49.426;11.182;2024-01-07T14:19:54;0.50;99.90
11538;DHT22;50159;49.426;11.182;2024-01-07T14:22:21;0.50;99.90
11538;DHT22;50159;49.426;11.182;2024-01-07T14:24:48;0.60;99.90
11538;DHT22;50159;49.426;11.182;2024-01-07T14:27:15;0.50;99.90
11538;DHT22;50159;49.426;11.182;2024-01-07T14:29:42;0.60;99.90
11538;DHT22;50159;49.426;11.182;2024-01-07T14:32:10;0.50;99.90
11538;DHT22;50159;49.426;11.182;2024-01-07T14:34:37;0.50;99.90
11538;DHT22;50159;49.426;11.182;2024-01-07T14:37:10;0.50;99.90
11538;DHT22;50159;49.426;11.182;2024-01-07T14:39:37;0.50;99.90
11538;DHT22;50159;49.426;11.182;2024-01-07T14:42:04;0.50;99.90
11538;DHT22;50159;49.426;11.182;2024-01-07T14:44:31;0.50;99.90
11538;DHT22;50159;49.426;11.182;2024-01-07T14:47:13;0.50;99.90
11538;DHT22;50159;49.426;11.182;2024-01-07T14:49:41;0.40;99.90
11538;DHT22;50159;49.426;11.182;2024-01-07T14:52:08;0.40;99.90
11538;DHT22;50159;49.426;11.182;2024-01-07T14:54:35;0.40;99.90
11538;DHT22;50159;49.426;11.182;2024-01-07T14:57:04;0.40;99.90
11538;DHT22;50159;49.426;11.182;2024-01-07T14:59:33;0.40;99.90
11538;DHT22;50159;49.426;11.182;2024-01-07T15:01:59;0.40;99.90
11538;DHT22;50159;49.426;11.182;2024-01-07T15:04:26;0.40;99.90
11538;DHT22;50159;49.426;11.182;2024-01-07T15:06:54;0.40;99.90
11538;DHT22;50159;49.426;11.182;2024-01-07T15:09:20;0.40;99.90
11538;DHT22;50159;49.426;11.182;2024-01-07T15:11:48;0.40;99.90
11538;DHT22;50159;49.426;11.182;2024-01-07T15:14:15;0.40;99.90
11538;DHT22;50159;49.426;11.182;2024-01-07T15:16:42;0.30;99.90
11538;DHT22;50159;49.426;11.182;2024-01-07T15:19:09;0.30;99.90
11538;DHT22;50159;49.426;11.182;2024-01-07T15:21:37;0.30;99.90
11538;DHT22;50159;49.426;11.182;2024-01-07T15:24:04;0.20;99.90
11538;DHT22;50159;49.426;11.182;2024-01-07T15:26:31;0.10;99.90
11538;DHT22;50159;49.426;11.182;2024-01-07T15:29:01;0.10;99.90
11538;DHT22;50159;49.426;11.182;2024-01-07T15:31:28;0.10;99.90
11538;DHT22;50159;49.426;11.182;2024-01-07T15:33:55;0.10;99.90
11538;DHT22;50159;49.426;11.182;2024-01-07T15:36:22;0.10;99.90